sensor_id;sensor_type;location;lat;lon;timestamp;P1;durP1;ratioP1;P2;durP2;ratioP2
35418;SDS011;21525;41.240;16.500;2023-03-03T00:01:36;6.10;;;2.45;;
35418;SDS011;21525;41.240;16.500;2023-03-03T00:04:02;7.72;;;2.10;;
35418;SDS011;21525;41.240;16.500;2023-03-03T00:06:27;6.40;;;2.50;;
35418;SDS011;21525;41.240;16.500;2023-03-03T00:08:54;7.53;;;2.63;;
35418;SDS011;21525;41.240;16.500;2023-03-03T00:11:21;6.90;;;3.05;;
35418;SDS011;21525;41.240;16.500;2023-03-03T00:18:52;11.85;;;4.35;;
35418;SDS011;21525;41.240;16.500;2023-03-03T00:21:32;10.98;;;2.95;;
35418;SDS011;21525;41.240;16.500;2023-03-03T00:26:49;9.25;;;3.47;;
35418;SDS011;21525;41.240;16.500;2023-03-03T00:34:39;6.63;;;2.92;;
35418;SDS011;21525;41.240;16.500;2023-03-03T00:37:26;9.00;;;2.90;;
35418;SDS011;21525;41.240;16.500;2023-03-03T00:40:19;7.75;;;3.00;;
35418;SDS011;21525;41.240;16.500;2023-03-03T00:42:48;9.15;;;2.90;;
35418;SDS011;21525;41.240;16.500;2023-03-03T00:45:24;8.35;;;3.13;;
35418;SDS011;21525;41.240;16.500;2023-03-03T00:47:53;10.65;;;2.97;;
35418;SDS011;21525;41.240;16.500;2023-03-03T00:50:24;7.50;;;2.55;;
35418;SDS011;21525;41.240;16.500;2023-03-03T00:55:29;6.07;;;2.60;;
35418;SDS011;21525;41.240;16.500;2023-03-03T00:57:56;7.68;;;3.63;;
35418;SDS011;21525;41.240;16.500;2023-03-03T01:00:27;11.10;;;3.55;;
35418;SDS011;21525;41.240;16.500;2023-03-03T01:02:53;15.68;;;4.03;;
35418;SDS011;21525;41.240;16.500;2023-03-03T01:05:19;12.55;;;3.47;;
35418;SDS011;21525;41.240;16.500;2023-03-03T01:07:45;7.07;;;3.03;;
35418;SDS011;21525;41.240;16.500;2023-03-03T01:10:11;11.88;;;3.45;;
35418;SDS011;21525;41.240;16.500;2023-03-03T01:12:38;7.38;;;3.75;;
35418;SDS011;21525;41.240;16.500;2023-03-03T01:15:05;7.25;;;2.78;;
35418;SDS011;21525;41.240;16.500;2023-03-03T01:17:32;7.85;;;3.08;;
35418;SDS011;21525;41.240;16.500;2023-03-03T01:19:59;8.48;;;3.65;;
35418;SDS011;21525;41.240;16.500;2023-03-03T01:22:25;12.40;;;3.90;;
35418;SDS011;21525;41.240;16.500;2023-03-03T01:24:51;13.50;;;5.20;;
35418;SDS011;21525;41.240;16.500;2023-03-03T01:27:17;9.02;;;3.80;;
35418;SDS011;21525;41.240;16.500;2023-03-03T01:29:43;12.05;;;4.18;;
35418;SDS011;21525;41.240;16.500;2023-03-03T01:32:09;12.25;;;3.60;;
35418;SDS011;21525;41.240;16.500;2023-03-03T01:34:34;7.40;;;3.08;;
35418;SDS011;21525;41.240;16.500;2023-03-03T01:37:00;4.82;;;2.55;;
35418;SDS011;21525;41.240;16.500;2023-03-03T01:39:27;7.00;;;2.70;;
35418;SDS011;21525;41.240;16.500;2023-03-03T01:41:53;6.70;;;2.45;;
35418;SDS011;21525;41.240;16.500;2023-03-03T01:44:19;13.10;;;4.20;;
35418;SDS011;21525;41.240;16.500;2023-03-03T01:47:04;8.23;;;2.67;;
35418;SDS011;21525;41.240;16.500;2023-03-03T01:49:41;9.07;;;2.88;;
35418;SDS011;21525;41.240;16.500;2023-03-03T01:52:24;7.38;;;2.80;;
35418;SDS011;21525;41.240;16.500;2023-03-03T01:54:53;7.97;;;2.13;;
35418;SDS011;21525;41.240;16.500;2023-03-03T01:57:26;9.15;;;3.35;;
35418;SDS011;21525;41.240;16.500;2023-03-03T01:59:58;7.53;;;2.53;;
35418;SDS011;21525;41.240;16.500;2023-03-03T02:02:27;7.53;;;2.22;;
35418;SDS011;21525;41.240;16.500;2023-03-03T02:04:53;7.63;;;2.60;;
35418;SDS011;21525;41.240;16.500;2023-03-03T02:07:19;8.93;;;2.90;;
35418;SDS011;21525;41.240;16.500;2023-03-03T02:10:04;8.27;;;2.53;;
35418;SDS011;21525;41.240;16.500;2023-03-03T02:12:54;7.50;;;2.58;;
35418;SDS011;21525;41.240;16.500;2023-03-03T02:17:53;10.77;;;3.22;;
35418;SDS011;21525;41.240;16.500;2023-03-03T02:28:22;5.45;;;2.33;;
35418;SDS011;21525;41.240;16.500;2023-03-03T02:30:54;6.18;;;2.20;;
35418;SDS011;21525;41.240;16.500;2023-03-03T02:33:21;4.97;;;2.00;;
35418;SDS011;21525;41.240;16.500;2023-03-03T02:35:47;6.45;;;2.05;;
35418;SDS011;21525;41.240;16.500;2023-03-03T02:40:57;5.53;;;1.70;;
35418;SDS011;21525;41.240;16.500;2023-03-03T02:43:28;7.32;;;2.10;;
35418;SDS011;21525;41.240;16.500;2023-03-03T02:46:05;6.07;;;2.10;;
35418;SDS011;21525;41.240;16.500;2023-03-03T02:48:31;4.72;;;2.67;;
35418;SDS011;21525;41.240;16.500;2023-03-03T02:50:58;6.40;;;2.10;;
35418;SDS011;21525;41.240;16.500;2023-03-03T02:53:24;7.93;;;2.10;;
35418;SDS011;21525;41.240;16.500;2023-03-03T02:55:51;6.22;;;1.92;;
35418;SDS011;21525;41.240;16.500;2023-03-03T02:58:17;10.05;;;2.45;;
35418;SDS011;21525;41.240;16.500;2023-03-03T03:00:43;7.20;;;2.35;;
35418;SDS011;21525;41.240;16.500;2023-03-03T03:03:15;5.82;;;2.55;;
35418;SDS011;21525;41.240;16.500;2023-03-03T03:05:41;8.00;;;2.85;;
35418;SDS011;21525;41.240;16.500;2023-03-03T03:08:06;10.30;;;5.00;;
35418;SDS011;21525;41.240;16.500;2023-03-03T03:10:32;8.65;;;4.03;;
35418;SDS011;21525;41.240;16.500;2023-03-03T03:12:58;12.23;;;4.28;;
35418;SDS011;21525;41.240;16.500;2023-03-03T03:15:24;10.55;;;3.53;;
35418;SDS011;21525;41.240;16.500;2023-03-03T03:17:50;16.48;;;3.40;;
35418;SDS011;21525;41.240;16.500;2023-03-03T03:20:16;10.45;;;3.20;;
35418;SDS011;21525;41.240;16.500;2023-03-03T03:22:43;14.57;;;3.13;;
35418;SDS011;21525;41.240;16.500;2023-03-03T03:25:09;9.05;;;3.08;;
35418;SDS011;21525;41.240;16.500;2023-03-03T03:27:36;8.25;;;3.08;;
35418;SDS011;21525;41.240;16.500;2023-03-03T03:30:02;8.65;;;4.05;;
35418;SDS011;21525;41.240;16.500;2023-03-03T03:32:29;9.77;;;4.28;;
35418;SDS011;21525;41.240;16.500;2023-03-03T03:34:55;28.52;;;9.05;;
35418;SDS011;21525;41.240;16.500;2023-03-03T03:37:21;16.65;;;6.03;;
35418;SDS011;21525;41.240;16.500;2023-03-03T03:39:47;40.35;;;14.85;;
35418;SDS011;21525;41.240;16.500;2023-03-03T03:42:12;22.15;;;8.55;;
35418;SDS011;21525;41.240;16.500;2023-03-03T03:44:39;29.27;;;11.27;;
35418;SDS011;21525;41.240;16.500;2023-03-03T03:47:05;15.52;;;5.72;;
35418;SDS011;21525;41.240;16.500;2023-03-03T03:49:32;14.25;;;5.80;;
35418;SDS011;21525;41.240;16.500;2023-03-03T03:51:58;15.57;;;5.53;;
35418;SDS011;21525;41.240;16.500;2023-03-03T03:54:28;12.60;;;4.75;;
35418;SDS011;21525;41.240;16.500;2023-03-03T03:56:53;9.35;;;3.33;;
35418;SDS011;21525;41.240;16.500;2023-03-03T03:59:22;11.85;;;3.20;;
35418;SDS011;21525;41.240;16.500;2023-03-03T04:01:48;11.30;;;4.47;;
35418;SDS011;21525;41.240;16.500;2023-03-03T04:04:15;10.70;;;4.82;;
35418;SDS011;21525;41.240;16.500;2023-03-03T04:06:42;9.18;;;4.00;;
35418;SDS011;21525;41.240;16.500;2023-03-03T04:09:08;7.53;;;2.58;;
35418;SDS011;21525;41.240;16.500;2023-03-03T04:11:34;6.85;;;2.22;;
35418;SDS011;21525;41.240;16.500;2023-03-03T04:14:02;3.25;;;2.00;;
35418;SDS011;21525;41.240;16.500;2023-03-03T04:16:28;7.05;;;2.00;;
35418;SDS011;21525;41.240;16.500;2023-03-03T04:18:54;6.32;;;2.75;;
35418;SDS011;21525;41.240;16.500;2023-03-03T04:21:20;6.55;;;2.10;;
35418;SDS011;21525;41.240;16.500;2023-03-03T04:23:47;8.65;;;2.17;;
35418;SDS011;21525;41.240;16.500;2023-03-03T04:26:13;7.50;;;1.90;;
35418;SDS011;21525;41.240;16.500;2023-03-03T04:28:40;5.15;;;2.03;;
35418;SDS011;21525;41.240;16.500;2023-03-03T04:31:06;7.63;;;2.20;;
35418;SDS011;21525;41.240;16.500;2023-03-03T04:33:32;8.82;;;3.17;;
35418;SDS011;21525;41.240;16.500;2023-03-03T04:36:00;12.82;;;5.22;;
35418;SDS011;21525;41.240;16.500;2023-03-03T04:38:26;20.63;;;6.57;;
35418;SDS011;21525;41.240;16.500;2023-03-03T04:40:53;8.82;;;4.50;;
35418;SDS011;21525;41.240;16.500;2023-03-03T04:43:19;11.02;;;3.75;;
35418;SDS011;21525;41.240;16.500;2023-03-03T04:45:46;11.13;;;3.53;;
35418;SDS011;21525;41.240;16.500;2023-03-03T04:48:11;9.80;;;4.10;;
35418;SDS011;21525;41.240;16.500;2023-03-03T04:50:37;10.55;;;4.53;;
35418;SDS011;21525;41.240;16.500;2023-03-03T04:53:04;12.43;;;5.30;;
35418;SDS011;21525;41.240;16.500;2023-03-03T04:55:30;13.65;;;6.30;;
35418;SDS011;21525;41.240;16.500;2023-03-03T04:57:55;11.82;;;6.03;;
35418;SDS011;21525;41.240;16.500;2023-03-03T05:00:21;10.27;;;4.85;;
35418;SDS011;21525;41.240;16.500;2023-03-03T05:02:47;11.85;;;3.63;;
35418;SDS011;21525;41.240;16.500;2023-03-03T05:05:14;5.82;;;3.42;;
35418;SDS011;21525;41.240;16.500;2023-03-03T05:07:41;8.82;;;3.65;;
35418;SDS011;21525;41.240;16.500;2023-03-03T05:10:07;8.63;;;3.03;;
35418;SDS011;21525;41.240;16.500;2023-03-03T05:12:33;11.68;;;4.20;;
35418;SDS011;21525;41.240;16.500;2023-03-03T05:14:59;18.33;;;6.30;;
35418;SDS011;21525;41.240;16.500;2023-03-03T05:17:25;13.55;;;6.60;;
35418;SDS011;21525;41.240;16.500;2023-03-03T05:19:51;15.93;;;7.25;;
35418;SDS011;21525;41.240;16.500;2023-03-03T05:22:17;21.95;;;6.28;;
35418;SDS011;21525;41.240;16.500;2023-03-03T05:24:42;12.15;;;5.85;;
35418;SDS011;21525;41.240;16.500;2023-03-03T05:27:08;26.60;;;13.85;;
35418;SDS011;21525;41.240;16.500;2023-03-03T05:29:36;25.33;;;12.25;;
35418;SDS011;21525;41.240;16.500;2023-03-03T05:32:01;20.70;;;9.55;;
35418;SDS011;21525;41.240;16.500;2023-03-03T05:34:27;17.02;;;8.75;;
35418;SDS011;21525;41.240;16.500;2023-03-03T05:36:53;21.95;;;11.20;;
35418;SDS011;21525;41.240;16.500;2023-03-03T05:39:19;29.95;;;13.85;;
35418;SDS011;21525;41.240;16.500;2023-03-03T05:41:45;30.15;;;15.77;;
35418;SDS011;21525;41.240;16.500;2023-03-03T05:44:10;55.03;;;29.45;;
35418;SDS011;21525;41.240;16.500;2023-03-03T05:46:36;78.72;;;43.45;;
35418;SDS011;21525;41.240;16.500;2023-03-03T05:49:02;84.22;;;45.25;;
35418;SDS011;21525;41.240;16.500;2023-03-03T05:51:28;72.78;;;40.05;;
35418;SDS011;21525;41.240;16.500;2023-03-03T05:53:54;61.28;;;30.30;;
35418;SDS011;21525;41.240;16.500;2023-03-03T05:56:19;59.47;;;30.95;;
35418;SDS011;21525;41.240;16.500;2023-03-03T05:58:45;64.40;;;30.85;;
35418;SDS011;21525;41.240;16.500;2023-03-03T06:01:11;61.20;;;29.20;;
35418;SDS011;21525;41.240;16.500;2023-03-03T06:03:37;53.63;;;28.90;;
35418;SDS011;21525;41.240;16.500;2023-03-03T06:06:03;49.58;;;26.10;;
35418;SDS011;21525;41.240;16.500;2023-03-03T06:08:29;36.17;;;19.45;;
35418;SDS011;21525;41.240;16.500;2023-03-03T06:10:56;42.80;;;18.90;;
35418;SDS011;21525;41.240;16.500;2023-03-03T06:13:23;40.55;;;19.45;;
35418;SDS011;21525;41.240;16.500;2023-03-03T06:15:49;39.17;;;20.38;;
35418;SDS011;21525;41.240;16.500;2023-03-03T06:18:15;43.92;;;20.55;;
35418;SDS011;21525;41.240;16.500;2023-03-03T06:20:41;44.33;;;23.98;;
35418;SDS011;21525;41.240;16.500;2023-03-03T06:23:06;38.55;;;21.13;;
35418;SDS011;21525;41.240;16.500;2023-03-03T06:25:32;47.25;;;27.90;;
35418;SDS011;21525;41.240;16.500;2023-03-03T06:28:00;41.92;;;27.65;;
35418;SDS011;21525;41.240;16.500;2023-03-03T06:30:26;37.33;;;24.40;;
35418;SDS011;21525;41.240;16.500;2023-03-03T06:32:53;39.67;;;25.10;;
35418;SDS011;21525;41.240;16.500;2023-03-03T06:35:19;35.95;;;25.13;;
35418;SDS011;21525;41.240;16.500;2023-03-03T06:37:44;37.65;;;27.15;;
35418;SDS011;21525;41.240;16.500;2023-03-03T06:40:10;37.15;;;26.92;;
35418;SDS011;21525;41.240;16.500;2023-03-03T06:42:36;40.22;;;28.60;;
35418;SDS011;21525;41.240;16.500;2023-03-03T06:45:02;40.38;;;27.45;;
35418;SDS011;21525;41.240;16.500;2023-03-03T06:47:28;33.80;;;24.58;;
35418;SDS011;21525;41.240;16.500;2023-03-03T06:49:54;35.58;;;26.17;;
35418;SDS011;21525;41.240;16.500;2023-03-03T06:52:22;33.42;;;24.23;;
35418;SDS011;21525;41.240;16.500;2023-03-03T06:54:52;33.17;;;24.30;;
35418;SDS011;21525;41.240;16.500;2023-03-03T06:57:22;34.38;;;23.92;;
35418;SDS011;21525;41.240;16.500;2023-03-03T06:59:53;31.70;;;24.75;;
35418;SDS011;21525;41.240;16.500;2023-03-03T07:02:21;36.90;;;26.75;;
35418;SDS011;21525;41.240;16.500;2023-03-03T07:04:47;34.85;;;28.20;;
35418;SDS011;21525;41.240;16.500;2023-03-03T07:07:20;41.25;;;30.15;;
35418;SDS011;21525;41.240;16.500;2023-03-03T07:09:50;41.38;;;32.58;;
35418;SDS011;21525;41.240;16.500;2023-03-03T07:12:21;35.15;;;29.67;;
35418;SDS011;21525;41.240;16.500;2023-03-03T07:17:25;38.42;;;28.42;;
35418;SDS011;21525;41.240;16.500;2023-03-03T07:19:51;32.45;;;25.48;;
35418;SDS011;21525;41.240;16.500;2023-03-03T07:22:22;32.78;;;27.83;;
35418;SDS011;21525;41.240;16.500;2023-03-03T07:24:51;28.73;;;23.67;;
35418;SDS011;21525;41.240;16.500;2023-03-03T07:29:49;25.20;;;21.17;;
35418;SDS011;21525;41.240;16.500;2023-03-03T07:32:37;26.02;;;20.92;;
35418;SDS011;21525;41.240;16.500;2023-03-03T07:35:28;30.02;;;20.45;;
35418;SDS011;21525;41.240;16.500;2023-03-03T07:37:55;21.80;;;18.25;;
35418;SDS011;21525;41.240;16.500;2023-03-03T07:40:36;21.95;;;15.02;;
35418;SDS011;21525;41.240;16.500;2023-03-03T07:45:54;14.18;;;10.27;;
35418;SDS011;21525;41.240;16.500;2023-03-03T07:48:50;11.52;;;7.20;;
35418;SDS011;21525;41.240;16.500;2023-03-03T07:53:53;12.13;;;7.13;;
35418;SDS011;21525;41.240;16.500;2023-03-03T07:56:37;14.35;;;5.80;;
35418;SDS011;21525;41.240;16.500;2023-03-03T07:59:12;9.73;;;4.43;;
35418;SDS011;21525;41.240;16.500;2023-03-03T08:02:00;8.80;;;4.38;;
35418;SDS011;21525;41.240;16.500;2023-03-03T08:07:19;12.05;;;5.82;;
35418;SDS011;21525;41.240;16.500;2023-03-03T08:14:47;13.07;;;4.70;;
35418;SDS011;21525;41.240;16.500;2023-03-03T08:17:21;24.95;;;4.85;;
35418;SDS011;21525;41.240;16.500;2023-03-03T08:19:49;10.05;;;4.70;;
35418;SDS011;21525;41.240;16.500;2023-03-03T08:22:34;14.10;;;5.05;;
35418;SDS011;21525;41.240;16.500;2023-03-03T08:25:00;14.00;;;7.47;;
35418;SDS011;21525;41.240;16.500;2023-03-03T08:27:26;11.50;;;6.43;;
35418;SDS011;21525;41.240;16.500;2023-03-03T08:29:52;18.63;;;6.25;;
35418;SDS011;21525;41.240;16.500;2023-03-03T08:32:18;12.52;;;6.55;;
35418;SDS011;21525;41.240;16.500;2023-03-03T08:34:44;17.75;;;6.45;;
35418;SDS011;21525;41.240;16.500;2023-03-03T08:37:10;11.30;;;5.22;;
35418;SDS011;21525;41.240;16.500;2023-03-03T08:39:36;18.10;;;10.43;;
35418;SDS011;21525;41.240;16.500;2023-03-03T08:42:01;14.20;;;7.28;;
35418;SDS011;21525;41.240;16.500;2023-03-03T08:44:27;11.68;;;6.68;;
35418;SDS011;21525;41.240;16.500;2023-03-03T08:46:53;14.25;;;7.25;;
35418;SDS011;21525;41.240;16.500;2023-03-03T08:49:19;11.88;;;7.13;;
35418;SDS011;21525;41.240;16.500;2023-03-03T08:51:46;14.23;;;7.35;;
35418;SDS011;21525;41.240;16.500;2023-03-03T08:54:12;12.65;;;6.68;;
35418;SDS011;21525;41.240;16.500;2023-03-03T08:56:38;12.57;;;7.28;;
35418;SDS011;21525;41.240;16.500;2023-03-03T08:59:04;19.40;;;9.98;;
35418;SDS011;21525;41.240;16.500;2023-03-03T09:01:31;13.57;;;7.68;;
35418;SDS011;21525;41.240;16.500;2023-03-03T09:03:57;13.90;;;7.43;;
35418;SDS011;21525;41.240;16.500;2023-03-03T09:06:23;19.85;;;9.07;;
35418;SDS011;21525;41.240;16.500;2023-03-03T09:08:49;11.93;;;6.82;;
35418;SDS011;21525;41.240;16.500;2023-03-03T09:11:19;18.52;;;7.97;;
35418;SDS011;21525;41.240;16.500;2023-03-03T09:13:49;15.40;;;6.88;;
35418;SDS011;21525;41.240;16.500;2023-03-03T09:16:17;10.97;;;5.93;;
35418;SDS011;21525;41.240;16.500;2023-03-03T09:18:45;9.68;;;5.22;;
35418;SDS011;21525;41.240;16.500;2023-03-03T09:21:20;11.15;;;5.20;;
35418;SDS011;21525;41.240;16.500;2023-03-03T09:23:52;11.38;;;5.40;;
35418;SDS011;21525;41.240;16.500;2023-03-03T09:36:39;9.57;;;4.68;;
35418;SDS011;21525;41.240;16.500;2023-03-03T09:39:38;16.83;;;6.03;;
35418;SDS011;21525;41.240;16.500;2023-03-03T10:06:41;10.63;;;5.78;;
35418;SDS011;21525;41.240;16.500;2023-03-03T10:09:41;9.07;;;4.35;;
35418;SDS011;21525;41.240;16.500;2023-03-03T10:12:27;10.80;;;3.80;;
35418;SDS011;21525;41.240;16.500;2023-03-03T10:15:03;7.20;;;4.07;;
35418;SDS011;21525;41.240;16.500;2023-03-03T10:21:07;9.60;;;4.75;;
35418;SDS011;21525;41.240;16.500;2023-03-03T10:26:20;11.68;;;4.60;;
35418;SDS011;21525;41.240;16.500;2023-03-03T10:37:31;5.03;;;2.15;;
35418;SDS011;21525;41.240;16.500;2023-03-03T10:59:46;11.60;;;5.70;;
35418;SDS011;21525;41.240;16.500;2023-03-03T11:08:08;12.20;;;6.13;;
35418;SDS011;21525;41.240;16.500;2023-03-03T11:27:13;10.65;;;5.82;;
35418;SDS011;21525;41.240;16.500;2023-03-03T11:36:11;14.00;;;6.47;;
35418;SDS011;21525;41.240;16.500;2023-03-03T11:40:57;15.88;;;5.82;;
35418;SDS011;21525;41.240;16.500;2023-03-03T11:45:59;8.50;;;4.20;;
35418;SDS011;21525;41.240;16.500;2023-03-03T11:48:45;12.32;;;5.32;;
35418;SDS011;21525;41.240;16.500;2023-03-03T11:51:26;13.05;;;4.68;;
35418;SDS011;21525;41.240;16.500;2023-03-03T11:54:14;8.13;;;4.78;;
35418;SDS011;21525;41.240;16.500;2023-03-03T11:56:46;11.70;;;4.90;;
35418;SDS011;21525;41.240;16.500;2023-03-03T12:05:15;11.32;;;4.50;;
35418;SDS011;21525;41.240;16.500;2023-03-03T12:08:15;12.73;;;4.63;;
35418;SDS011;21525;41.240;16.500;2023-03-03T12:13:49;10.13;;;4.32;;
35418;SDS011;21525;41.240;16.500;2023-03-03T12:16:34;9.90;;;4.65;;
35418;SDS011;21525;41.240;16.500;2023-03-03T12:30:05;12.10;;;4.43;;
35418;SDS011;21525;41.240;16.500;2023-03-03T12:33:09;12.85;;;5.65;;
35418;SDS011;21525;41.240;16.500;2023-03-03T12:40:56;12.07;;;3.97;;
35418;SDS011;21525;41.240;16.500;2023-03-03T12:43:34;9.48;;;3.95;;
35418;SDS011;21525;41.240;16.500;2023-03-03T12:48:50;11.27;;;4.22;;
35418;SDS011;21525;41.240;16.500;2023-03-03T12:57:03;8.30;;;4.10;;
35418;SDS011;21525;41.240;16.500;2023-03-03T13:18:23;10.00;;;3.72;;
35418;SDS011;21525;41.240;16.500;2023-03-03T13:21:14;6.95;;;2.97;;
35418;SDS011;21525;41.240;16.500;2023-03-03T13:23:47;4.68;;;2.80;;
35418;SDS011;21525;41.240;16.500;2023-03-03T13:26:21;7.32;;;2.70;;
35418;SDS011;21525;41.240;16.500;2023-03-03T13:28:57;10.98;;;2.80;;
35418;SDS011;21525;41.240;16.500;2023-03-03T13:31:33;6.95;;;3.15;;
35418;SDS011;21525;41.240;16.500;2023-03-03T13:34:04;6.88;;;2.40;;
35418;SDS011;21525;41.240;16.500;2023-03-03T13:37:17;6.13;;;2.60;;
35418;SDS011;21525;41.240;16.500;2023-03-03T13:39:28;10.18;;;2.72;;
35418;SDS011;21525;41.240;16.500;2023-03-03T13:42:07;4.57;;;2.33;;
35418;SDS011;21525;41.240;16.500;2023-03-03T13:44:40;8.13;;;2.30;;
35418;SDS011;21525;41.240;16.500;2023-03-03T13:58:48;8.88;;;2.83;;
35418;SDS011;21525;41.240;16.500;2023-03-03T14:01:38;7.25;;;2.15;;
35418;SDS011;21525;41.240;16.500;2023-03-03T14:04:41;4.90;;;2.00;;
35418;SDS011;21525;41.240;16.500;2023-03-03T14:07:18;7.95;;;2.15;;
35418;SDS011;21525;41.240;16.500;2023-03-03T14:20:27;4.75;;;1.98;;
35418;SDS011;21525;41.240;16.500;2023-03-03T14:23:01;3.87;;;1.40;;
35418;SDS011;21525;41.240;16.500;2023-03-03T14:25:48;4.40;;;2.03;;
35418;SDS011;21525;41.240;16.500;2023-03-03T14:28:40;8.48;;;2.70;;
35418;SDS011;21525;41.240;16.500;2023-03-03T14:31:13;8.00;;;2.80;;
35418;SDS011;21525;41.240;16.500;2023-03-03T14:33:41;7.13;;;2.88;;
35418;SDS011;21525;41.240;16.500;2023-03-03T14:36:11;6.97;;;3.00;;
35418;SDS011;21525;41.240;16.500;2023-03-03T14:38:39;14.57;;;3.22;;
35418;SDS011;21525;41.240;16.500;2023-03-03T14:43:45;6.30;;;1.88;;
35418;SDS011;21525;41.240;16.500;2023-03-03T14:46:35;4.60;;;2.05;;
35418;SDS011;21525;41.240;16.500;2023-03-03T14:49:04;7.53;;;2.47;;
35418;SDS011;21525;41.240;16.500;2023-03-03T14:51:39;9.82;;;1.90;;
35418;SDS011;21525;41.240;16.500;2023-03-03T14:54:15;6.32;;;2.10;;
35418;SDS011;21525;41.240;16.500;2023-03-03T14:57:05;8.80;;;1.75;;
35418;SDS011;21525;41.240;16.500;2023-03-03T14:59:36;6.20;;;2.05;;
35418;SDS011;21525;41.240;16.500;2023-03-03T15:04:41;5.60;;;2.08;;
35418;SDS011;21525;41.240;16.500;2023-03-03T15:07:19;8.25;;;2.10;;
35418;SDS011;21525;41.240;16.500;2023-03-03T15:09:59;7.57;;;1.77;;
35418;SDS011;21525;41.240;16.500;2023-03-03T15:17:37;5.60;;;2.08;;
35418;SDS011;21525;41.240;16.500;2023-03-03T15:28:38;8.63;;;2.78;;
35418;SDS011;21525;41.240;16.500;2023-03-03T15:33:50;7.95;;;2.10;;
35418;SDS011;21525;41.240;16.500;2023-03-03T15:36:41;6.97;;;2.22;;
35418;SDS011;21525;41.240;16.500;2023-03-03T15:50:30;10.63;;;2.95;;
35418;SDS011;21525;41.240;16.500;2023-03-03T15:56:08;10.90;;;3.70;;
35418;SDS011;21525;41.240;16.500;2023-03-03T15:59:44;6.88;;;2.70;;
35418;SDS011;21525;41.240;16.500;2023-03-03T16:01:52;10.43;;;4.22;;
35418;SDS011;21525;41.240;16.500;2023-03-03T16:04:33;8.32;;;3.90;;
35418;SDS011;21525;41.240;16.500;2023-03-03T16:12:13;7.97;;;3.30;;
35418;SDS011;21525;41.240;16.500;2023-03-03T16:20:29;7.32;;;3.08;;
35418;SDS011;21525;41.240;16.500;2023-03-03T16:28:41;11.85;;;3.50;;
35418;SDS011;21525;41.240;16.500;2023-03-03T16:31:46;11.60;;;2.97;;
35418;SDS011;21525;41.240;16.500;2023-03-03T16:37:16;9.95;;;3.47;;
35418;SDS011;21525;41.240;16.500;2023-03-03T16:39:54;12.77;;;3.45;;
35418;SDS011;21525;41.240;16.500;2023-03-03T16:42:26;12.52;;;3.95;;
35418;SDS011;21525;41.240;16.500;2023-03-03T16:45:05;8.75;;;3.05;;
35418;SDS011;21525;41.240;16.500;2023-03-03T17:03:23;8.00;;;2.50;;
35418;SDS011;21525;41.240;16.500;2023-03-03T17:08:35;6.22;;;2.65;;
35418;SDS011;21525;41.240;16.500;2023-03-03T17:13:54;9.55;;;3.00;;
35418;SDS011;21525;41.240;16.500;2023-03-03T17:30:21;8.65;;;2.63;;
35418;SDS011;21525;41.240;16.500;2023-03-03T17:33:18;11.40;;;3.47;;
35418;SDS011;21525;41.240;16.500;2023-03-03T17:36:11;10.48;;;2.90;;
35418;SDS011;21525;41.240;16.500;2023-03-03T18:02:51;13.23;;;4.20;;
35418;SDS011;21525;41.240;16.500;2023-03-03T18:08:08;10.85;;;5.63;;
35418;SDS011;21525;41.240;16.500;2023-03-03T18:19:24;10.20;;;3.20;;
35418;SDS011;21525;41.240;16.500;2023-03-03T18:22:05;9.90;;;3.33;;
35418;SDS011;21525;41.240;16.500;2023-03-03T18:32:41;10.32;;;3.42;;
35418;SDS011;21525;41.240;16.500;2023-03-03T18:37:48;9.93;;;3.83;;
35418;SDS011;21525;41.240;16.500;2023-03-03T18:40:18;17.23;;;4.90;;
35418;SDS011;21525;41.240;16.500;2023-03-03T18:42:45;16.10;;;4.38;;
35418;SDS011;21525;41.240;16.500;2023-03-03T19:05:58;16.25;;;4.70;;
35418;SDS011;21525;41.240;16.500;2023-03-03T19:16:43;14.98;;;4.28;;
35418;SDS011;21525;41.240;16.500;2023-03-03T19:19:10;10.88;;;4.57;;
35418;SDS011;21525;41.240;16.500;2023-03-03T19:21:49;11.95;;;4.28;;
35418;SDS011;21525;41.240;16.500;2023-03-03T19:24:35;12.88;;;4.75;;
35418;SDS011;21525;41.240;16.500;2023-03-03T19:27:17;15.07;;;4.55;;
35418;SDS011;21525;41.240;16.500;2023-03-03T19:29:56;10.00;;;4.45;;
35418;SDS011;21525;41.240;16.500;2023-03-03T19:37:54;10.48;;;3.90;;
35418;SDS011;21525;41.240;16.500;2023-03-03T19:53:20;11.15;;;4.15;;
35418;SDS011;21525;41.240;16.500;2023-03-03T20:01:17;16.92;;;7.70;;
35418;SDS011;21525;41.240;16.500;2023-03-03T20:06:57;12.82;;;5.50;;
35418;SDS011;21525;41.240;16.500;2023-03-03T20:15:04;12.88;;;4.60;;
35418;SDS011;21525;41.240;16.500;2023-03-03T20:23:35;13.40;;;5.53;;
35418;SDS011;21525;41.240;16.500;2023-03-03T20:40:14;11.60;;;6.40;;
35418;SDS011;21525;41.240;16.500;2023-03-03T20:51:16;17.02;;;8.52;;
35418;SDS011;21525;41.240;16.500;2023-03-03T20:59:54;18.80;;;7.47;;
35418;SDS011;21525;41.240;16.500;2023-03-03T21:05:24;15.18;;;7.65;;
35418;SDS011;21525;41.240;16.500;2023-03-03T21:10:21;19.80;;;7.88;;
35418;SDS011;21525;41.240;16.500;2023-03-03T21:12:55;13.75;;;7.75;;
35418;SDS011;21525;41.240;16.500;2023-03-03T21:15:24;19.95;;;9.60;;
35418;SDS011;21525;41.240;16.500;2023-03-03T21:17:55;15.10;;;9.27;;
35418;SDS011;21525;41.240;16.500;2023-03-03T21:22:51;14.95;;;6.82;;
35418;SDS011;21525;41.240;16.500;2023-03-03T21:31:12;11.77;;;6.80;;
35418;SDS011;21525;41.240;16.500;2023-03-03T21:37:00;13.75;;;7.13;;
35418;SDS011;21525;41.240;16.500;2023-03-03T21:38:59;17.95;;;8.15;;
35418;SDS011;21525;41.240;16.500;2023-03-03T21:41:26;11.38;;;5.93;;
35418;SDS011;21525;41.240;16.500;2023-03-03T21:43:52;13.43;;;6.00;;
35418;SDS011;21525;41.240;16.500;2023-03-03T21:46:19;10.45;;;5.07;;
35418;SDS011;21525;41.240;16.500;2023-03-03T21:48:47;14.23;;;4.97;;
35418;SDS011;21525;41.240;16.500;2023-03-03T21:51:14;10.57;;;5.22;;
35418;SDS011;21525;41.240;16.500;2023-03-03T21:53:41;8.75;;;4.78;;
35418;SDS011;21525;41.240;16.500;2023-03-03T21:56:09;10.15;;;4.93;;
35418;SDS011;21525;41.240;16.500;2023-03-03T21:58:35;11.35;;;4.43;;
35418;SDS011;21525;41.240;16.500;2023-03-03T22:01:03;8.75;;;4.72;;
35418;SDS011;21525;41.240;16.500;2023-03-03T22:03:30;9.10;;;4.40;;
35418;SDS011;21525;41.240;16.500;2023-03-03T22:05:56;11.35;;;4.65;;
35418;SDS011;21525;41.240;16.500;2023-03-03T22:08:22;8.90;;;4.68;;
35418;SDS011;21525;41.240;16.500;2023-03-03T22:10:51;10.85;;;4.10;;
35418;SDS011;21525;41.240;16.500;2023-03-03T22:13:23;10.85;;;4.63;;
35418;SDS011;21525;41.240;16.500;2023-03-03T22:15:50;10.32;;;4.35;;
35418;SDS011;21525;41.240;16.500;2023-03-03T22:18:17;10.23;;;3.85;;
35418;SDS011;21525;41.240;16.500;2023-03-03T22:20:44;9.02;;;4.45;;
35418;SDS011;21525;41.240;16.500;2023-03-03T22:23:11;9.52;;;4.43;;
35418;SDS011;21525;41.240;16.500;2023-03-03T22:25:38;11.63;;;5.70;;
35418;SDS011;21525;41.240;16.500;2023-03-03T22:28:04;9.98;;;5.10;;
35418;SDS011;21525;41.240;16.500;2023-03-03T22:30:30;12.63;;;5.28;;
35418;SDS011;21525;41.240;16.500;2023-03-03T22:32:56;11.57;;;5.70;;
35418;SDS011;21525;41.240;16.500;2023-03-03T22:35:21;10.93;;;5.82;;
35418;SDS011;21525;41.240;16.500;2023-03-03T22:37:47;9.90;;;5.00;;
35418;SDS011;21525;41.240;16.500;2023-03-03T22:40:13;12.05;;;5.78;;